Time;durP1;ratioP1;P1;durP2;ratioP2;P2;SDS_P1;SDS_P2;PMS_P1;PMS_P2;Temp;Humidity;BMP_temperature;BMP_pressure;BME280_temperature;BME280_humidity;BME280_pressure;Samples;Min_cycle;Max_cycle;Signal;HPM_P1;HPM_P2
2023/11/12 00:00:33;;;;;;;6.60;3.57;;;;;;;;;;5072442;28;21015;-74
2023/11/12 00:03:02;;;;;;;9.40;3.77;;;6.80;1.00;;;;;;5066496;28;20464;-74
2023/11/12 00:05:28;;;;;;;7.67;4.17;;;6.80;1.00;;;;;;5062836;28;20440;-74
2023/11/12 00:07:56;;;;;;;6.40;3.43;;;6.90;1.00;;;;;;5051908;28;20961;-75
2023/11/12 00:10:22;;;;;;;10.73;4.67;;;6.90;1.00;;;;;;5058679;28;20175;-74
2023/11/12 00:12:47;;;;;;;6.57;3.40;;;6.70;1.00;;;;;;5066071;28;20430;-74
2023/11/12 00:15:13;;;;;;;5.20;3.77;;;6.60;1.00;;;;;;5062985;28;20654;-74
2023/11/12 00:17:42;;;;;;;5.50;3.60;;;;;;;;;;5054746;28;20176;-75
2023/11/12 00:20:15;;;;;;;9.43;3.60;;;6.60;1.00;;;;;;5052557;28;20176;-75
2023/11/12 00:22:43;;;;;;;6.43;3.00;;;;;;;;;;5064417;28;20429;-75
2023/11/12 00:25:32;;;;;;;7.80;3.17;;;6.40;1.00;;;;;;5059855;28;20830;-84
2023/11/12 00:28:14;;;;;;;6.70;4.17;;;;;;;;;;5064181;28;20543;-84
2023/11/12 00:30:44;;;;;;;7.07;3.33;;;6.50;1.00;;;;;;5071847;28;20426;-84
2023/11/12 00:33:14;;;;;;;11.23;4.20;;;6.50;1.00;;;;;;5062353;28;20438;-84
2023/11/12 00:35:44;;;;;;;11.13;3.90;;;6.50;1.00;;;;;;5056226;28;20909;-85
2023/11/12 00:38:15;;;;;;;4.80;3.40;;;;;;;;;;5065090;28;20447;-83
2023/11/12 00:40:45;;;;;;;12.20;4.13;;;6.50;1.00;;;;;;5055165;28;20431;-74
2023/11/12 00:43:11;;;;;;;13.03;4.93;;;;;;;;;;5055755;28;20425;-74
2023/11/12 00:45:39;;;;;;;6.30;3.50;;;6.60;1.00;;;;;;5055872;28;20397;-74
2023/11/12 00:48:05;;;;;;;18.23;5.27;;;6.60;1.00;;;;;;5069199;28;20460;-74
2023/11/12 00:50:31;;;;;;;6.30;3.70;;;6.50;1.00;;;;;;5055623;28;20409;-74
2023/11/12 00:53:02;;;;;;;6.33;4.33;;;6.60;1.00;;;;;;5057336;28;20422;-74
2023/11/12 00:55:28;;;;;;;10.60;4.20;;;6.50;1.00;;;;;;5063646;28;20791;-74
2023/11/12 00:57:54;;;;;;;6.13;4.47;;;;;;;;;;5046709;28;20457;-74
2023/11/12 01:00:20;;;;;;;8.30;4.80;;;6.70;1.00;;;;;;5064535;28;20783;-75
2023/11/12 01:02:50;;;;;;;8.83;4.50;;;6.70;1.00;;;;;;5061788;28;20422;-74
2023/11/12 01:05:26;;;;;;;9.67;4.00;;;6.80;1.00;;;;;;5055215;28;20171;-74
2023/11/12 01:07:52;;;;;;;9.33;4.57;;;6.80;1.00;;;;;;5056687;28;20448;-74
2023/11/12 01:10:32;;;;;;;11.47;4.30;;;6.80;1.00;;;;;;5061324;28;20422;-84
2023/11/12 01:13:38;;;;;;;6.33;4.10;;;6.70;1.00;;;;;;5051932;28;20201;-84
2023/11/12 01:16:09;;;;;;;14.77;3.90;;;;;;;;;;5075960;28;20781;-84
2023/11/12 01:21:57;;;;;;;8.13;5.27;;;6.40;1.00;;;;;;5063198;28;20389;-84
2023/11/12 01:24:33;;;;;;;9.80;4.67;;;6.50;1.00;;;;;;5074563;28;20524;-84
2023/11/12 01:27:03;;;;;;;6.80;4.77;;;;;;;;;;5054815;28;20545;-74
2023/11/12 01:29:29;;;;;;;7.73;3.83;;;;;;;;;;5054105;28;20458;-74
2023/11/12 01:31:55;;;;;;;9.90;4.67;;;;;;;;;;5069829;28;20488;-74
2023/11/12 01:34:22;;;;;;;10.20;5.20;;;;;;;;;;5055436;28;20863;-74
2023/11/12 01:36:48;;;;;;;9.17;3.97;;;;;;;;;;5052017;28;20437;-75
2023/11/12 01:39:15;;;;;;;11.33;4.33;;;6.60;1.00;;;;;;5052013;28;20433;-74
2023/11/12 01:42:33;;;;;;;17.43;5.50;;;6.60;1.00;;;;;;5055881;28;20426;-84
2023/11/12 01:45:14;;;;;;;10.20;5.67;;;6.60;1.00;;;;;;5064159;28;20453;-84
2023/11/12 01:51:05;;;;;;;12.80;4.53;;;6.60;1.00;;;;;;5055048;28;20374;-84
2023/11/12 01:54:14;;;;;;;11.27;5.40;;;6.50;1.00;;;;;;5055472;28;20422;-85
2023/11/12 01:56:40;;;;;;;11.27;4.37;;;6.40;1.00;;;;;;5059554;28;20536;-75
2023/11/12 01:59:06;;;;;;;9.03;4.27;;;;;;;;;;5061426;28;20434;-74
2023/11/12 02:01:38;;;;;;;12.27;4.27;;;6.20;1.00;;;;;;5054514;28;20437;-74
2023/11/12 02:04:07;;;;;;;7.60;4.30;;;6.10;1.00;;;;;;5054689;28;20460;-75
2023/11/12 02:06:38;;;;;;;6.40;4.93;;;6.10;1.00;;;;;;5061045;28;20775;-74
2023/11/12 02:09:09;;;;;;;8.40;5.30;;;6.10;1.00;;;;;;5059033;28;20465;-74
2023/11/12 02:11:39;;;;;;;8.30;5.67;;;6.00;1.00;;;;;;5054212;28;20433;-74
2023/11/12 02:14:23;;;;;;;12.87;5.97;;;6.10;1.00;;;;;;5071079;28;20903;-72
2023/11/12 02:16:51;;;;;;;11.07;5.97;;;6.00;1.00;;;;;;5053976;28;20839;-72
2023/11/12 02:19:42;;;;;;;9.37;6.00;;;6.10;1.00;;;;;;5055932;28;20426;-72
2023/11/12 02:22:15;;;;;;;8.53;4.80;;;;;;;;;;5059660;28;20426;-72
2023/11/12 02:24:45;;;;;;;10.43;5.83;;;;;;;;;;5054095;28;20877;-72
2023/11/12 02:27:11;;;;;;;13.27;5.37;;;6.20;1.00;;;;;;5054805;28;20430;-72
2023/11/12 02:29:37;;;;;;;9.60;4.83;;;;;;;;;;5052442;28;20483;-72
2023/11/12 02:32:03;;;;;;;16.20;6.37;;;6.20;1.00;;;;;;5055538;28;20258;-72
2023/11/12 02:34:32;;;;;;;12.53;6.67;;;6.30;1.00;;;;;;5074032;28;20504;-72
2023/11/12 02:37:08;;;;;;;15.70;5.97;;;6.40;1.00;;;;;;5056922;28;20449;-72
2023/11/12 02:39:41;;;;;;;16.63;5.90;;;6.30;1.00;;;;;;5054640;28;20903;-72
2023/11/12 02:42:08;;;;;;;11.70;6.20;;;6.30;1.00;;;;;;5054699;28;20421;-72
2023/11/12 02:44:36;;;;;;;13.37;5.73;;;;;;;;;;5053369;28;20490;-72
2023/11/12 02:47:04;;;;;;;10.73;7.33;;;;;;;;;;5059656;28;20420;-72
2023/11/12 02:49:46;;;;;;;13.67;6.20;;;6.40;1.00;;;;;;5061211;28;20486;-72
2023/11/12 02:52:12;;;;;;;13.23;5.87;;;6.40;1.00;;;;;;5042558;28;20410;-72
2023/11/12 02:54:38;;;;;;;18.83;6.00;;;6.40;1.00;;;;;;5053728;28;20920;-72
2023/11/12 02:57:04;;;;;;;18.90;6.70;;;;;;;;;;5051825;28;20241;-72
2023/11/12 02:59:30;;;;;;;19.17;7.40;;;6.40;1.00;;;;;;5053026;28;20187;-72
2023/11/12 03:02:02;;;;;;;10.73;5.57;;;6.40;1.00;;;;;;5064139;28;20458;-72
2023/11/12 03:04:29;;;;;;;13.23;7.20;;;;;;;;;;5069329;28;20405;-72
2023/11/12 03:06:54;;;;;;;15.80;5.80;;;6.40;1.00;;;;;;5064688;28;20496;-72
2023/11/12 03:09:20;;;;;;;13.10;6.20;;;6.50;1.00;;;;;;5068347;28;20461;-72
2023/11/12 03:11:46;;;;;;;13.23;6.67;;;;;;;;;;5059138;28;20175;-71
2023/11/12 03:14:13;;;;;;;11.40;5.97;;;;;;;;;;5053562;28;20156;-72
2023/11/12 03:16:47;;;;;;;10.77;6.27;;;6.80;1.00;;;;;;5062681;28;20507;-72
2023/11/12 03:19:15;;;;;;;12.13;5.97;;;;;;;;;;5055728;28;20442;-72
2023/11/12 03:21:41;;;;;;;19.43;6.50;;;6.70;1.00;;;;;;5061696;28;20417;-72
2023/11/12 03:24:08;;;;;;;13.10;6.33;;;6.70;1.00;;;;;;5066044;28;20437;-72
2023/11/12 03:26:34;;;;;;;13.03;5.30;;;6.70;1.00;;;;;;5048378;28;20507;-72
2023/11/12 03:29:26;;;;;;;8.90;5.77;;;;;;;;;;5065300;28;20481;-72
2023/11/12 03:31:55;;;;;;;11.33;5.50;;;6.60;1.00;;;;;;5068367;28;20436;-72
2023/11/12 03:34:24;;;;;;;12.40;6.60;;;;;;;;;;5050759;28;20456;-72
2023/11/12 03:36:50;;;;;;;12.63;5.70;;;6.60;1.00;;;;;;5056412;28;20418;-72
2023/11/12 03:39:27;;;;;;;14.20;5.17;;;;;;;;;;5053225;28;20414;-71
2023/11/12 03:42:02;;;;;;;7.37;4.50;;;6.50;1.00;;;;;;5054040;28;20725;-72
2023/11/12 03:44:32;;;;;;;14.30;6.10;;;6.50;1.00;;;;;;5045880;28;20440;-72
2023/11/12 03:46:58;;;;;;;11.80;5.77;;;;;;;;;;5052708;28;20827;-72
2023/11/12 03:49:24;;;;;;;13.43;7.23;;;6.40;1.00;;;;;;5057842;28;20493;-72
2023/11/12 03:51:52;;;;;;;13.57;6.90;;;;;;;;;;5062425;28;20432;-72
2023/11/12 03:54:20;;;;;;;13.93;6.53;;;6.40;1.00;;;;;;5069201;28;20262;-72
2023/11/12 03:56:46;;;;;;;12.77;5.60;;;6.40;1.00;;;;;;5054981;28;20517;-82
2023/11/12 03:59:30;;;;;;;17.07;6.23;;;6.50;1.00;;;;;;5057077;28;20456;-82
2023/11/12 04:02:15;;;;;;;13.57;7.10;;;6.50;1.00;;;;;;5057361;28;20266;-82
2023/11/12 04:04:52;;;;;;;12.97;6.33;;;;;;;;;;5073102;28;20891;-82
2023/11/12 04:07:56;;;;;;;13.30;7.53;;;6.60;1.00;;;;;;5076776;28;20519;-82
2023/11/12 04:11:14;;;;;;;11.10;7.20;;;6.70;1.00;;;;;;5057848;28;20437;-82
2023/11/12 04:13:44;;;;;;;9.17;6.60;;;6.70;1.00;;;;;;5044284;28;20414;-82
2023/11/12 04:22:54;;;;;;;14.53;6.63;;;6.70;1.00;;;;;;5043355;28;20922;-82
2023/11/12 04:28:42;;;;;;;10.23;5.50;;;;;;;;;;5063552;28;20198;-82
2023/11/12 04:35:02;;;;;;;11.93;6.70;;;6.80;1.00;;;;;;5053898;28;20445;-82
2023/11/12 04:41:11;;;;;;;10.90;5.53;;;6.80;1.00;;;;;;5036642;28;20464;-82
2023/11/12 04:43:44;;;;;;;9.73;5.17;;;7.00;1.00;;;;;;5067337;28;20424;-72
2023/11/12 04:46:11;;;;;;;11.67;7.03;;;6.90;1.00;;;;;;5056139;28;20935;-72
2023/11/12 04:48:39;;;;;;;12.10;5.97;;;6.90;1.00;;;;;;5062168;28;20552;-72
2023/11/12 04:51:10;;;;;;;9.83;5.10;;;;;;;;;;5062254;28;20434;-72
2023/11/12 04:53:37;;;;;;;16.20;5.57;;;7.10;1.00;;;;;;5053480;28;20430;-72
2023/11/12 04:56:07;;;;;;;21.17;5.53;;;7.10;1.00;;;;;;5056377;28;20472;-72
2023/11/12 04:59:15;;;;;;;11.23;5.77;;;7.20;1.00;;;;;;5055729;28;20809;-82
2023/11/12 05:02:27;;;;;;;10.00;6.20;;;7.20;1.00;;;;;;5063187;28;20841;-82
2023/11/12 05:08:15;;;;;;;14.80;6.10;;;;;;;;;;5047907;28;20490;-81
2023/11/12 05:14:02;;;;;;;16.83;5.80;;;7.30;1.00;;;;;;5063048;28;20787;-82
2023/11/12 05:16:32;;;;;;;10.23;5.37;;;7.30;1.00;;;;;;5062439;28;20425;-82
2023/11/12 05:22:44;;;;;;;11.63;5.70;;;7.30;1.00;;;;;;5061478;28;20413;-82
2023/11/12 05:28:32;;;;;;;23.03;5.13;;;7.20;1.00;;;;;;5055653;28;20511;-72
2023/11/12 05:31:02;;;;;;;22.83;5.97;;;7.10;1.00;;;;;;5053700;28;20433;-72
2023/11/12 05:33:28;;;;;;;11.93;5.27;;;7.30;1.00;;;;;;5061157;28;20631;-72
2023/11/12 05:35:54;;;;;;;8.60;4.67;;;7.30;1.00;;;;;;5066682;28;20421;-72
2023/11/12 05:38:34;;;;;;;12.20;4.93;;;7.30;1.00;;;;;;5065109;28;20312;-72
2023/11/12 05:41:08;;;;;;;19.70;5.07;;;7.30;1.00;;;;;;5055894;28;20187;-72
2023/11/12 05:43:34;;;;;;;6.87;4.00;;;7.30;1.00;;;;;;5071736;28;20463;-72
2023/11/12 05:46:02;;;;;;;17.00;5.23;;;7.40;1.00;;;;;;5074273;28;20441;-72
2023/11/12 05:48:28;;;;;;;11.13;4.77;;;7.30;1.00;;;;;;5055634;28;20210;-72
2023/11/12 05:50:56;;;;;;;10.13;4.90;;;7.30;1.00;;;;;;5066672;28;20405;-72
2023/11/12 05:53:26;;;;;;;13.00;5.23;;;7.20;1.00;;;;;;5068571;28;20209;-72
2023/11/12 05:55:52;;;;;;;12.90;4.63;;;7.30;1.00;;;;;;5054155;28;20809;-72
2023/11/12 05:58:18;;;;;;;8.83;4.50;;;7.30;1.00;;;;;;5067862;28;20504;-72
2023/11/12 06:00:44;;;;;;;21.03;6.20;;;;;;;;;;5053741;28;20188;-72
2023/11/12 06:03:10;;;;;;;9.13;4.90;;;;;;;;;;5052662;28;20421;-72
2023/11/12 06:05:36;;;;;;;22.80;4.90;;;;;;;;;;5054044;28;20905;-72
2023/11/12 06:08:03;;;;;;;14.43;4.70;;;;;;;;;;5060778;28;20441;-72
2023/11/12 06:10:31;;;;;;;10.73;4.80;;;;;;;;;;5061540;28;20398;-72
2023/11/12 06:12:57;;;;;;;8.47;4.40;;;;;;;;;;5045295;28;20430;-73
2023/11/12 06:15:32;;;;;;;21.27;4.70;;;7.30;1.00;;;;;;5065268;28;20425;-72
2023/11/12 06:17:58;;;;;;;35.93;6.30;;;;;;;;;;5054333;28;20932;-72
2023/11/12 06:20:33;;;;;;;8.43;4.70;;;7.30;1.00;;;;;;5055218;28;20430;-72
2023/11/12 06:23:02;;;;;;;9.37;4.47;;;7.30;1.00;;;;;;5065801;28;20419;-72
2023/11/12 06:25:28;;;;;;;8.43;5.10;;;;;;;;;;5054260;28;20508;-73
2023/11/12 06:27:57;;;;;;;9.00;4.67;;;7.20;1.00;;;;;;5063130;28;20500;-72
2023/11/12 06:30:22;;;;;;;11.73;4.87;;;7.20;1.00;;;;;;5070609;28;20461;-72
2023/11/12 06:32:51;;;;;;;11.67;4.33;;;7.30;1.00;;;;;;5046208;28;20497;-73
2023/11/12 06:35:17;;;;;;;17.10;6.10;;;;;;;;;;5052116;28;20176;-71
2023/11/12 06:37:45;;;;;;;13.23;5.17;;;;;;;;;;5057029;28;20830;-73
2023/11/12 06:40:20;;;;;;;9.10;5.07;;;7.20;1.00;;;;;;5055091;28;20414;-72
2023/11/12 06:49:48;;;;;;;10.70;4.60;;;7.20;1.00;;;;;;5062063;28;20488;-88
2023/11/12 06:55:36;;;;;;;11.40;5.03;;;7.10;1.00;;;;;;5057159;28;20463;-88
2023/11/12 07:01:23;;;;;;;5.30;4.27;;;7.10;1.00;;;;;;5056428;28;20429;-89
2023/11/12 07:04:14;;;;;;;11.23;4.57;;;7.00;1.00;;;;;;5060231;28;20426;-90
2023/11/12 07:13:44;;;;;;;12.23;6.13;;;7.20;1.00;;;;;;5058718;28;20398;-86
2023/11/12 07:19:32;;;;;;;12.67;5.93;;;;;;;;;;5069858;28;20508;-87
2023/11/12 07:22:15;;;;;;;12.73;6.33;;;;;;;;;;5067798;28;20405;-86
2023/11/12 07:24:57;;;;;;;16.60;6.50;;;;;;;;;;5046622;28;20419;-86
2023/11/12 07:30:45;;;;;;;14.00;5.87;;;;;;;;;;5051948;28;20528;-87
2023/11/12 07:46:40;;;;;;;10.10;5.00;;;8.00;1.00;;;;;;5066535;28;20471;-80
2023/11/12 07:49:50;;;;;;;8.90;4.70;;;8.10;1.00;;;;;;5066175;28;21002;-81
2023/11/12 07:52:21;;;;;;;13.17;5.70;;;;;;;;;;5057959;28;20429;-80
2023/11/12 07:58:08;;;;;;;16.90;6.10;;;8.10;1.00;;;;;;5067866;28;20475;-81
2023/11/12 08:03:57;;;;;;;20.50;5.73;;;;;;;;;;5064771;28;20244;-72
2023/11/12 08:06:26;;;;;;;15.90;6.83;;;;;;;;;;5056466;28;20430;-71
2023/11/12 08:08:53;;;;;;;13.40;5.97;;;8.30;1.00;;;;;;5054568;28;20488;-71
2023/11/12 08:11:21;;;;;;;12.37;6.33;;;;;;;;;;5061229;28;20430;-71
2023/11/12 08:13:47;;;;;;;11.63;5.60;;;8.10;1.00;;;;;;5056768;28;20421;-69
2023/11/12 08:16:13;;;;;;;9.97;5.20;;;8.30;1.00;;;;;;5057904;28;20475;-69
2023/11/12 08:18:39;;;;;;;17.43;6.20;;;8.30;1.00;;;;;;5051721;28;20534;-69
2023/11/12 08:21:06;;;;;;;31.83;7.93;;;;;;;;;;5041950;28;20918;-69
2023/11/12 08:23:36;;;;;;;33.97;8.60;;;8.40;1.00;;;;;;5052377;28;20497;-71
2023/11/12 08:26:02;;;;;;;17.30;6.80;;;8.40;1.00;;;;;;5050257;28;20429;-70
2023/11/12 08:28:28;;;;;;;13.33;6.50;;;8.40;1.00;;;;;;5052047;28;20504;-73
2023/11/12 08:30:56;;;;;;;13.03;5.63;;;8.40;1.00;;;;;;5062452;28;20428;-74
2023/11/12 08:33:27;;;;;;;15.27;6.30;;;;;;;;;;5072574;28;20484;-76
2023/11/12 08:36:10;;;;;;;13.73;6.97;;;8.60;1.00;;;;;;5043844;28;20916;-74
2023/11/12 08:38:39;;;;;;;18.97;6.73;;;;;;;;;;5056139;28;20452;-74
2023/11/12 08:41:07;;;;;;;14.33;7.30;;;8.60;1.00;;;;;;5063621;28;20461;-73
2023/11/12 08:43:34;;;;;;;17.97;7.23;;;;;;;;;;5065211;28;21008;-74
2023/11/12 08:46:38;;;;;;;16.33;6.53;;;8.60;1.00;;;;;;5062194;28;20453;-83
2023/11/12 08:52:56;;;;;;;11.07;5.60;;;8.60;1.00;;;;;;5058474;28;20422;-83
2023/11/12 08:55:56;;;;;;;14.67;6.23;;;8.60;1.00;;;;;;5052152;28;20745;-83
2023/11/12 08:58:38;;;;;;;10.60;6.40;;;8.60;1.00;;;;;;5051185;28;20446;-83
2023/11/12 09:01:34;;;;;;;10.00;6.33;;;8.60;1.00;;;;;;5069064;28;20450;-75
2023/11/12 09:04:09;;;;;;;17.73;6.47;;;8.70;1.00;;;;;;5054050;28;20434;-74
2023/11/12 09:06:35;;;;;;;10.30;6.30;;;;;;;;;;5053848;28;20429;-74
2023/11/12 09:09:04;;;;;;;14.40;6.30;;;;;;;;;;5052353;28;20830;-74
2023/11/12 09:11:31;;;;;;;18.13;6.13;;;8.80;1.00;;;;;;5055858;28;20470;-75
2023/11/12 09:14:16;;;;;;;11.33;6.10;;;8.90;1.00;;;;;;5054411;28;20434;-75
2023/11/12 09:16:45;;;;;;;17.67;7.00;;;8.90;1.00;;;;;;5055516;28;20410;-74
2023/11/12 09:19:21;;;;;;;10.87;6.00;;;9.00;1.00;;;;;;5063129;28;20507;-74
2023/11/12 09:21:46;;;;;;;11.60;5.90;;;9.10;1.00;;;;;;5054370;28;20453;-74
2023/11/12 09:24:13;;;;;;;20.97;7.07;;;9.20;1.00;;;;;;5038995;28;20442;-75
2023/11/12 09:26:39;;;;;;;12.20;6.43;;;9.30;1.00;;;;;;5055018;28;20180;-75
2023/11/12 09:29:04;;;;;;;11.20;5.50;;;9.40;1.00;;;;;;5047539;28;20461;-74
2023/11/12 09:32:03;;;;;;;14.53;6.53;;;9.20;1.00;;;;;;5071337;28;20183;-83
2023/11/12 09:34:39;;;;;;;10.77;5.60;;;9.30;1.00;;;;;;5055005;28;20417;-83
2023/11/12 09:40:52;;;;;;;11.07;5.27;;;9.40;1.00;;;;;;5049316;28;20430;-83
2023/11/12 09:46:40;;;;;;;10.93;5.57;;;9.60;1.00;;;;;;5035187;28;20435;-82
2023/11/12 09:49:10;;;;;;;9.90;4.90;;;;;;;;;;5046671;28;20466;-83
2023/11/12 09:55:05;;;;;;;10.30;4.93;;;9.90;1.00;;;;;;5056589;28;20443;-83
2023/11/12 09:57:30;;;;;;;15.17;5.60;;;10.00;1.00;;;;;;5070015;28;20457;-82
2023/11/12 09:59:58;;;;;;;10.83;5.53;;;;;;;;;;5063358;28;20571;-75
2023/11/12 10:02:40;;;;;;;15.03;6.57;;;10.00;1.00;;;;;;5053159;28;20184;-75
2023/11/12 10:05:21;;;;;;;12.80;5.93;;;10.20;1.00;;;;;;5056217;28;20418;-74
2023/11/12 10:07:47;;;;;;;16.63;6.37;;;10.30;1.00;;;;;;5056936;28;20473;-74
2023/11/12 10:10:21;;;;;;;11.53;5.07;;;10.30;1.00;;;;;;5067018;28;20480;-74
2023/11/12 10:12:54;;;;;;;15.10;5.30;;;10.40;1.00;;;;;;5060800;28;20227;-74
2023/11/12 10:15:27;;;;;;;17.13;5.83;;;10.30;1.00;;;;;;5054663;28;20422;-83
2023/11/12 10:17:57;;;;;;;17.60;6.00;;;10.30;1.00;;;;;;5055292;28;20473;-82
2023/11/12 10:20:41;;;;;;;12.17;6.20;;;10.30;1.00;;;;;;5070165;28;20476;-83
2023/11/12 10:23:32;;;;;;;15.80;6.90;;;10.30;1.00;;;;;;5062262;28;20417;-83
2023/11/12 10:25:58;;;;;;;13.37;6.13;;;10.30;1.00;;;;;;5050925;28;20444;-82
2023/11/12 10:28:39;;;;;;;12.57;6.37;;;10.30;1.00;;;;;;5052828;28;20453;-82
2023/11/12 10:34:50;;;;;;;15.57;6.47;;;10.40;1.00;;;;;;5069632;28;20420;-82
2023/11/12 10:40:37;;;;;;;12.97;6.37;;;10.50;1.00;;;;;;5043076;28;20427;-81
2023/11/12 10:46:26;;;;;;;11.40;6.23;;;10.80;1.00;;;;;;5059564;28;20207;-75
2023/11/12 10:48:57;;;;;;;12.10;6.47;;;;;;;;;;5069296;28;20545;-74
2023/11/12 10:51:46;;;;;;;14.07;7.27;;;11.10;1.00;;;;;;5041885;28;20939;-74
2023/11/12 10:54:16;;;;;;;10.47;6.33;;;11.20;1.00;;;;;;5073979;28;20396;-74
2023/11/12 10:56:45;;;;;;;19.13;6.50;;;11.20;1.00;;;;;;5053923;28;20460;-75
2023/11/12 10:59:13;;;;;;;32.63;7.67;;;11.20;1.00;;;;;;5053773;28;20916;-74
2023/11/12 11:01:39;;;;;;;14.30;6.10;;;11.30;1.00;;;;;;5053179;28;20917;-83
2023/11/12 11:04:08;;;;;;;16.90;7.23;;;11.50;1.00;;;;;;5062028;28;20926;-82
2023/11/12 11:10:20;;;;;;;12.37;6.00;;;11.90;1.00;;;;;;5046184;28;20468;-82
2023/11/12 11:16:09;;;;;;;16.90;6.43;;;12.00;1.00;;;;;;5058976;28;20778;-82
2023/11/12 11:18:56;;;;;;;10.33;5.87;;;;;;;;;;5056276;28;20517;-82
2023/11/12 11:28:19;;;;;;;10.37;4.97;;;12.30;1.00;;;;;;5049854;28;20758;-82
2023/11/12 11:31:38;;;;;;;11.53;5.77;;;12.10;1.00;;;;;;5050933;28;20395;-75
2023/11/12 11:34:10;;;;;;;20.00;5.60;;;11.90;1.00;;;;;;5043794;28;20434;-75
2023/11/12 11:36:40;;;;;;;16.80;5.27;;;12.10;1.00;;;;;;5054359;28;20516;-75
2023/11/12 11:39:15;;;;;;;9.53;4.67;;;;;;;;;;5050710;28;20522;-74
2023/11/12 11:41:58;;;;;;;8.77;5.00;;;12.30;1.00;;;;;;5055620;28;20499;-75
2023/11/12 11:45:05;;;;;;;12.97;5.60;;;12.40;1.00;;;;;;5066240;28;20823;-75
2023/11/12 11:47:31;;;;;;;11.10;5.83;;;;;;;;;;5053627;28;20459;-75
2023/11/12 11:50:31;;;;;;;19.23;6.47;;;12.60;1.00;;;;;;5052667;28;21013;-74
2023/11/12 11:52:58;;;;;;;12.30;5.63;;;12.50;1.00;;;;;;5069038;28;20792;-74
2023/11/12 11:55:32;;;;;;;16.20;5.80;;;12.30;1.00;;;;;;5059464;28;20506;-75
2023/11/12 11:58:04;;;;;;;9.27;5.90;;;12.20;1.00;;;;;;5061439;28;20456;-74
2023/11/12 12:00:33;;;;;;;12.40;5.70;;;12.20;1.00;;;;;;5066453;28;20451;-75
2023/11/12 12:03:19;;;;;;;10.73;5.13;;;12.00;1.00;;;;;;5033672;28;20408;-74
2023/11/12 12:06:16;;;;;;;10.10;5.53;;;11.90;1.00;;;;;;5064285;28;20822;-75
2023/11/12 12:08:55;;;;;;;9.63;5.10;;;11.80;1.00;;;;;;5053752;28;20967;-74
2023/11/12 12:11:24;;;;;;;9.50;5.40;;;11.70;1.00;;;;;;5062061;28;20387;-75
2023/11/12 12:13:57;;;;;;;17.97;6.50;;;11.70;1.00;;;;;;5054922;28;20405;-74
2023/11/12 12:16:42;;;;;;;12.67;6.20;;;11.70;1.00;;;;;;5063424;28;20441;-82
2023/11/12 12:19:27;;;;;;;12.60;6.20;;;;;;;;;;5075438;28;20448;-80
2023/11/12 12:22:26;;;;;;;9.80;5.30;;;11.90;1.00;;;;;;5084981;28;20429;-82
2023/11/12 12:28:29;;;;;;;16.00;5.77;;;12.10;1.00;;;;;;5054093;28;20463;-78
2023/11/12 12:34:39;;;;;;;9.50;5.30;;;12.10;1.00;;;;;;5053529;28;20416;-78
2023/11/12 12:40:33;;;;;;;12.47;5.93;;;11.90;1.00;;;;;;5055743;28;20418;-78
2023/11/12 12:43:10;;;;;;;8.60;5.47;;;11.90;1.00;;;;;;5071561;28;20764;-78
2023/11/12 12:45:39;;;;;;;10.20;5.13;;;11.90;1.00;;;;;;5069643;28;20947;-80
2023/11/12 12:52:02;;;;;;;14.47;6.80;;;11.90;1.00;;;;;;5057248;28;20467;-80
2023/11/12 12:55:16;;;;;;;10.87;6.37;;;12.60;1.00;;;;;;5011487;28;20974;-81
2023/11/12 12:57:50;;;;;;;13.73;5.70;;;12.00;1.00;;;;;;5013694;28;20448;-81
2023/11/12 13:03:51;;;;;;;25.80;7.37;;;12.00;1.00;;;;;;5013555;28;21004;-81
2023/11/12 13:09:38;;;;;;;15.30;6.53;;;;;;;;;;5013140;28;20471;-81
2023/11/12 13:12:12;;;;;;;11.07;5.40;;;;;;;;;;5011234;28;20444;-84
2023/11/12 13:14:51;;;;;;;10.83;6.17;;;;;;;;;;5005173;28;20466;-84
2023/11/12 13:34:10;;;;;;;17.83;7.67;;;11.70;1.00;;;;;;5041801;28;20414;-73
2023/11/12 13:36:51;;;;;;;13.07;7.30;;;11.50;1.00;;;;;;5053972;28;20432;-75
2023/11/12 13:42:45;;;;;;;17.00;7.00;;;;;;;;;;5060339;28;20408;-75
2023/11/12 13:45:13;;;;;;;12.00;6.60;;;11.20;1.00;;;;;;5053333;28;20429;-76
2023/11/12 13:48:15;;;;;;;12.77;6.87;;;11.30;1.00;;;;;;5056067;28;20425;-75
2023/11/12 13:50:46;;;;;;;18.20;7.80;;;11.20;1.00;;;;;;5054419;28;20394;-76
2023/11/12 13:53:24;;;;;;;14.90;7.37;;;11.30;1.00;;;;;;5060505;28;20872;-75
2023/11/12 13:55:55;;;;;;;19.03;7.27;;;;;;;;;;5069681;28;20819;-75
2023/11/12 13:58:22;;;;;;;11.33;6.57;;;;;;;;;;5047167;28;20450;-74
2023/11/12 14:00:57;;;;;;;13.83;6.53;;;11.50;1.00;;;;;;5060741;28;20417;-74
2023/11/12 14:03:27;;;;;;;13.13;6.80;;;11.50;1.00;;;;;;5051910;28;20974;-75
2023/11/12 14:05:52;;;;;;;15.10;6.10;;;11.50;1.00;;;;;;5057386;28;20511;-75
2023/11/12 14:08:19;;;;;;;12.13;6.63;;;11.40;1.00;;;;;;5062818;28;20437;-75
2023/11/12 14:10:46;;;;;;;16.27;6.40;;;11.40;1.00;;;;;;5058112;28;20175;-75
2023/11/12 14:13:14;;;;;;;15.77;6.50;;;11.40;1.00;;;;;;5054994;28;20544;-75
2023/11/12 14:15:51;;;;;;;12.00;6.57;;;;;;;;;;5059234;28;20432;-75
2023/11/12 14:18:34;;;;;;;13.00;6.03;;;11.30;1.00;;;;;;5041561;28;20429;-82
2023/11/12 14:21:16;;;;;;;10.97;6.13;;;11.30;1.00;;;;;;5053338;28;20879;-82
2023/11/12 14:23:59;;;;;;;13.20;6.13;;;11.20;1.00;;;;;;5033244;28;20411;-82
2023/11/12 14:33:09;;;;;;;10.33;6.17;;;;;;;;;;5062254;28;20404;-82
2023/11/12 14:38:57;;;;;;;13.07;6.30;;;;;;;;;;5034222;28;20441;-82
2023/11/12 14:41:40;;;;;;;22.33;5.63;;;;;;;;;;5065030;28;20438;-82
2023/11/12 14:47:35;;;;;;;21.07;5.70;;;10.60;1.00;;;;;;5045126;28;20477;-74
2023/11/12 14:50:03;;;;;;;10.23;6.03;;;10.50;1.00;;;;;;5051872;28;20446;-74
2023/11/12 14:52:36;;;;;;;7.77;5.07;;;10.40;1.00;;;;;;5053614;28;20503;-75
2023/11/12 14:55:15;;;;;;;22.13;7.33;;;10.30;1.00;;;;;;5052919;28;20414;-74
2023/11/12 15:01:28;;;;;;;9.63;5.20;;;;;;;;;;5040165;28;20449;-85
2023/11/12 15:03:57;;;;;;;13.90;5.13;;;;;;;;;;5052260;28;20789;-85
2023/11/12 15:13:07;;;;;;;12.57;5.90;;;;;;;;;;5059888;28;20418;-89
2023/11/12 15:19:27;;;;;;;14.90;5.20;;;9.70;1.00;;;;;;5034464;28;20375;-87
2023/11/12 15:25:39;;;;;;;7.77;4.73;;;9.50;1.00;;;;;;5033942;28;20461;-85
2023/11/12 15:28:05;;;;;;;15.17;4.97;;;9.50;1.00;;;;;;5058358;28;20414;-74
2023/11/12 15:30:45;;;;;;;25.63;5.40;;;;;;;;;;5057914;28;20485;-74
2023/11/12 15:36:33;;;;;;;17.33;5.70;;;9.30;1.00;;;;;;5055215;28;20465;-82
2023/11/12 15:42:39;;;;;;;16.50;5.40;;;;;;;;;;5035510;28;20211;-81
2023/11/12 15:48:40;;;;;;;8.50;5.20;;;;;;;;;;5046271;28;20402;-76
2023/11/12 15:51:06;;;;;;;11.67;4.97;;;8.80;1.00;;;;;;5057809;28;21041;-77
2023/11/12 15:53:40;;;;;;;9.63;4.97;;;;;;;;;;5058645;28;20807;-84
2023/11/12 15:56:08;;;;;;;11.60;5.13;;;;;;;;;;5054828;28;20416;-87
2023/11/12 15:58:45;;;;;;;11.70;4.77;;;8.50;1.00;;;;;;5063406;28;20442;-86
2023/11/12 16:07:55;;;;;;;11.80;5.60;;;8.40;1.00;;;;;;5052762;28;20469;-79
2023/11/12 16:10:21;;;;;;;14.13;5.27;;;;;;;;;;5038275;28;20914;-72
2023/11/12 16:13:27;;;;;;;11.57;4.73;;;8.30;1.00;;;;;;5059873;28;20414;-79
2023/11/12 16:16:20;;;;;;;7.83;5.00;;;8.30;1.00;;;;;;5064149;28;20421;-77
2023/11/12 16:22:11;;;;;;;16.60;6.13;;;8.10;1.00;;;;;;5056572;28;20393;-77
2023/11/12 16:24:40;;;;;;;9.47;4.70;;;8.00;1.00;;;;;;5056134;28;20509;-76
2023/11/12 16:31:09;;;;;;;22.47;5.87;;;7.90;1.00;;;;;;5048114;28;20482;-76
2023/11/12 16:33:39;;;;;;;7.90;4.70;;;7.90;1.00;;;;;;5054773;28;20418;-73
2023/11/12 16:39:57;;;;;;;12.80;6.07;;;7.90;1.00;;;;;;5036962;28;20428;-90
2023/11/12 16:46:20;;;;;;;13.47;5.57;;;7.90;1.00;;;;;;5059264;28;20459;-90
2023/11/12 16:49:03;;;;;;;15.00;5.37;;;;;;;;;;5048586;28;20457;-90
2023/11/12 16:51:39;;;;;;;15.83;5.47;;;7.90;1.00;;;;;;5050958;28;20430;-83
2023/11/12 16:54:15;;;;;;;15.20;5.40;;;7.90;1.00;;;;;;5048562;28;20437;-80
2023/11/12 16:57:20;;;;;;;13.40;6.10;;;7.90;1.00;;;;;;5040737;28;20889;-77
2023/11/12 16:59:46;;;;;;;13.50;5.87;;;7.80;1.00;;;;;;5053403;28;20422;-77
2023/11/12 17:02:27;;;;;;;11.63;6.70;;;7.90;1.00;;;;;;5057011;28;20429;-76
2023/11/12 17:04:54;;;;;;;26.80;7.40;;;;;;;;;;5067844;28;20277;-70
2023/11/12 17:07:20;;;;;;;11.00;5.53;;;7.90;1.00;;;;;;5052615;28;20433;-70
2023/11/12 17:09:46;;;;;;;16.20;6.27;;;;;;;;;;5053525;28;20462;-71
2023/11/12 17:12:13;;;;;;;10.67;6.43;;;7.90;1.00;;;;;;5051962;28;20188;-71
2023/11/12 17:18:23;;;;;;;15.17;6.00;;;7.90;1.00;;;;;;5057902;28;20421;-81
2023/11/12 17:21:09;;;;;;;13.07;6.10;;;7.80;1.00;;;;;;5051461;28;20951;-82
2023/11/12 17:24:14;;;;;;;14.33;6.30;;;7.80;1.00;;;;;;5034627;28;20945;-82
2023/11/12 17:30:02;;;;;;;11.00;6.00;;;;;;;;;;5075379;28;20472;-82
2023/11/12 17:32:39;;;;;;;11.97;5.63;;;7.80;1.00;;;;;;5065563;28;20422;-81
2023/11/12 17:41:49;;;;;;;17.13;7.47;;;7.70;1.00;;;;;;5073129;28;20470;-81
2023/11/12 17:44:21;;;;;;;21.70;7.27;;;7.80;1.00;;;;;;5061227;28;20434;-81
2023/11/12 17:47:39;;;;;;;15.87;6.87;;;7.70;1.00;;;;;;5060640;28;20409;-81
2023/11/12 17:53:27;;;;;;;11.13;5.40;;;;;;;;;;5066607;28;20424;-78
2023/11/12 17:55:57;;;;;;;11.40;6.10;;;7.60;1.00;;;;;;5058539;28;20762;-83
2023/11/12 17:58:45;;;;;;;18.10;6.37;;;7.60;1.00;;;;;;5068129;28;20442;-77